createdAt,value
2022-12-20T00:02:21.205Z,101334.66
2022-12-20T00:07:22.971Z,101320.09
2022-12-20T00:12:24.665Z,101310.19
2022-12-20T00:17:26.722Z,101316.47
2022-12-20T00:22:28.339Z,101307.72
2022-12-20T00:27:30.025Z,101306.28
2022-12-20T00:32:31.844Z,101298.34
2022-12-20T00:37:33.846Z,101281.41
2022-12-20T00:42:35.609Z,101287.97
2022-12-20T00:47:37.223Z,101303.72
2022-12-20T00:52:38.839Z,101302.47
2022-12-20T00:57:40.489Z,101307.72
2022-12-20T01:02:42.279Z,101307.25
2022-12-20T01:07:44.020Z,101311.22
2022-12-20T01:12:45.999Z,101341.34
2022-12-20T01:17:47.813Z,101319.75
2022-12-20T01:22:49.441Z,101328.78
2022-12-20T01:27:51.080Z,101313.19
2022-12-20T01:32:52.969Z,101302.09
2022-12-20T01:37:54.574Z,101286.31
2022-12-20T01:42:56.239Z,101262.03
2022-12-20T01:47:59.992Z,101272.19
2022-12-20T01:53:04.434Z,101262.09
2022-12-20T01:58:12.392Z,101263.44
2022-12-20T02:03:15.312Z,101267.03
2022-12-20T02:08:20.281Z,101290.25
2022-12-20T02:14:00.234Z,101271.22
2022-12-20T02:19:11.227Z,101266.78
2022-12-20T02:24:51.714Z,101281.34
2022-12-20T02:30:16.645Z,101274.41
2022-12-20T02:35:26.180Z,101258.50
2022-12-20T02:40:34.968Z,101260.56
2022-12-20T02:45:37.805Z,101248.81
2022-12-20T02:50:46.912Z,101244.22
2022-12-20T02:55:57.347Z,101234.84
2022-12-20T03:01:04.618Z,101241.28
2022-12-20T03:06:06.988Z,101239.81
2022-12-20T03:11:08.905Z,101235.06
2022-12-20T03:16:10.993Z,101224.34
2022-12-20T03:21:13.713Z,101248.66
2022-12-20T03:26:15.551Z,101241.84
2022-12-20T03:31:22.666Z,101228.69
2022-12-20T03:36:28.709Z,101229.56
2022-12-20T03:41:34.146Z,101234.28
2022-12-20T03:46:36.251Z,101223.25
2022-12-20T03:51:39.656Z,101209.78
2022-12-20T03:56:41.526Z,101210.84
2022-12-20T04:01:43.550Z,101223.31
2022-12-20T04:06:45.380Z,101225.00
2022-12-20T04:11:47.360Z,101221.34
2022-12-20T04:16:50.380Z,101227.63
2022-12-20T04:22:00.831Z,101245.13
2022-12-20T04:27:16.875Z,101237.09
2022-12-20T04:32:18.726Z,101244.63
2022-12-20T04:37:20.843Z,101232.78
2022-12-20T04:42:28.054Z,101229.78
2022-12-20T04:47:31.225Z,101239.81
2022-12-20T04:52:51.611Z,101231.53
2022-12-20T04:57:53.636Z,101213.00
2022-12-20T05:02:55.622Z,101207.44
2022-12-20T05:08:00.372Z,101209.78
2022-12-20T05:13:09.241Z,101215.72
2022-12-20T05:18:15.653Z,101222.38
2022-12-20T05:23:43.333Z,101208.56
2022-12-20T05:28:51.994Z,101198.78
2022-12-20T05:33:54.299Z,101202.91
2022-12-20T05:39:04.345Z,101205.59
2022-12-20T05:44:08.151Z,101210.19
2022-12-20T05:49:12.995Z,101206.09
2022-12-20T05:54:14.719Z,101204.59
2022-12-20T05:59:21.883Z,101199.22
2022-12-20T06:04:23.676Z,101203.88
2022-12-20T06:09:26.477Z,101207.94
2022-12-20T06:14:37.124Z,101216.00
2022-12-20T06:19:41.555Z,101217.94
2022-12-20T06:24:48.674Z,101202.47
2022-12-20T06:29:54.519Z,101185.81
2022-12-20T06:35:00.821Z,101198.16
2022-12-20T06:40:04.525Z,101198.78
2022-12-20T06:45:07.311Z,101186.69
2022-12-20T06:50:09.275Z,101191.97
2022-12-20T06:55:11.178Z,101203.34
2022-12-20T07:00:15.915Z,101207.31
2022-12-20T07:05:17.769Z,101192.59
2022-12-20T07:10:19.384Z,101183.78
2022-12-20T07:15:22.205Z,101188.72
2022-12-20T07:20:23.896Z,101195.41
2022-12-20T07:25:25.624Z,101194.34
2022-12-20T07:30:27.670Z,101188.72
2022-12-20T07:35:29.351Z,101207.00
2022-12-20T07:40:30.981Z,101236.94
2022-12-20T07:45:32.701Z,101203.56
2022-12-20T07:50:36.032Z,101191.34
2022-12-20T07:55:40.411Z,101167.44
2022-12-20T08:00:42.790Z,101151.16
2022-12-20T08:05:48.592Z,101169.28
2022-12-20T08:10:50.857Z,101195.22
2022-12-20T08:15:52.495Z,101198.91
2022-12-20T08:20:54.126Z,101194.59
2022-12-20T08:25:55.832Z,101203.19
2022-12-20T08:31:05.735Z,101201.25
2022-12-20T08:36:11.260Z,101192.47
2022-12-20T08:41:16.547Z,101173.31
2022-12-20T08:46:18.166Z,101155.25
2022-12-20T08:51:19.960Z,101177.72
2022-12-20T08:56:22.259Z,101165.81
2022-12-20T09:01:24.009Z,101159.16
2022-12-20T09:06:25.970Z,101158.38
2022-12-20T09:11:28.446Z,101153.00
2022-12-20T09:16:32.472Z,101160.22
2022-12-20T09:21:35.006Z,101164.53
2022-12-20T09:26:36.967Z,101155.91
2022-12-20T09:31:38.610Z,101162.06
2022-12-20T09:36:40.462Z,101157.03
2022-12-20T09:41:44.162Z,101143.88
2022-12-20T09:46:55.370Z,101132.28
2022-12-20T09:52:11.866Z,101126.28
2022-12-20T09:57:13.463Z,101132.06
2022-12-20T10:02:54.306Z,101102.59
2022-12-20T10:08:11.369Z,101119.47
2022-12-20T10:13:15.974Z,101112.69
2022-12-20T10:18:46.395Z,101108.41
2022-12-20T10:24:03.400Z,101100.66
2022-12-20T10:29:05.114Z,101082.28
2022-12-20T10:34:07.910Z,101081.09
2022-12-20T10:39:10.216Z,101077.97
2022-12-20T10:44:15.499Z,101064.09
2022-12-20T10:49:31.621Z,101046.88
2022-12-20T10:54:37.347Z,101042.13
2022-12-20T10:59:44.116Z,101023.63
2022-12-20T11:05:06.305Z,101037.00
2022-12-20T11:10:23.933Z,101020.63
2022-12-20T11:15:34.266Z,101009.22
2022-12-20T11:20:58.731Z,101012.44
2022-12-20T11:26:32.836Z,101003.75
2022-12-20T11:32:23.229Z,100987.28
2022-12-20T11:37:27.112Z,100979.31
2022-12-20T11:42:50.173Z,100977.81
2022-12-20T11:47:57.522Z,100969.41
2022-12-20T11:53:05.474Z,100952.41
2022-12-20T11:58:26.323Z,100963.59
2022-12-20T12:03:33.490Z,100958.56
2022-12-20T12:08:50.159Z,100948.13
2022-12-20T12:13:52.201Z,100920.81
2022-12-20T12:18:54.626Z,100926.38
2022-12-20T12:24:02.299Z,100915.63
2022-12-20T12:29:12.918Z,100899.59
2022-12-20T12:34:37.087Z,100896.16
2022-12-20T12:40:18.056Z,100903.66
2022-12-20T12:45:38.816Z,100905.91
2022-12-20T12:50:48.947Z,100896.44
2022-12-20T12:56:02.384Z,100893.84
2022-12-20T13:01:47.570Z,100901.50
2022-12-20T13:06:49.205Z,100908.81
2022-12-20T13:12:00.990Z,100902.34
2022-12-20T13:17:13.192Z,100905.34
2022-12-20T13:22:17.008Z,100903.66
2022-12-20T13:27:23.762Z,100909.25
2022-12-20T13:32:47.382Z,100903.88
2022-12-20T13:38:25.547Z,100909.34
2022-12-20T13:43:32.746Z,100917.31
2022-12-20T13:48:46.625Z,100926.78
2022-12-20T13:53:57.684Z,100912.91
2022-12-20T13:59:07.517Z,100905.50
2022-12-20T14:04:11.084Z,100888.00
2022-12-20T14:09:39.469Z,100870.22
2022-12-20T14:14:46.266Z,100877.00
2022-12-20T14:19:47.942Z,100885.94
2022-12-20T14:24:49.838Z,100875.63
2022-12-20T14:29:52.115Z,100871.22
2022-12-20T14:34:54.117Z,100868.94
2022-12-20T14:40:10.192Z,100875.63
2022-12-20T14:45:14.580Z,100885.69
2022-12-20T14:50:41.151Z,100871.50
2022-12-20T14:55:46.411Z,100856.66
2022-12-20T15:01:04.173Z,100850.25
2022-12-20T15:06:27.201Z,100871.22
2022-12-20T15:11:28.921Z,100859.38
2022-12-20T15:16:30.990Z,100861.84
2022-12-20T15:21:40.990Z,100854.97
2022-12-20T15:26:42.988Z,100853.28
2022-12-20T15:31:46.628Z,100852.50
2022-12-20T15:36:48.506Z,100841.41
2022-12-20T15:41:50.495Z,100846.47
2022-12-20T15:46:52.853Z,100844.25
2022-12-20T15:51:55.383Z,100856.06
2022-12-20T15:57:00.252Z,100859.69
2022-12-20T16:02:02.813Z,100852.38
2022-12-20T16:07:12.146Z,100847.44
2022-12-20T16:12:18.496Z,100848.69
2022-12-20T16:17:20.144Z,100841.31
2022-12-20T16:22:23.484Z,100836.03
2022-12-20T16:27:25.092Z,100820.50
2022-12-20T16:32:26.937Z,100806.13
2022-12-20T16:37:28.525Z,100798.00
2022-12-20T16:42:30.387Z,100795.72
2022-12-20T16:47:32.070Z,100816.91
2022-12-20T16:52:37.277Z,100804.00
2022-12-20T16:57:38.940Z,100823.78
2022-12-20T17:02:40.652Z,100814.44
2022-12-20T17:07:42.326Z,100820.91
2022-12-20T17:12:45.131Z,100816.25
2022-12-20T17:17:47.152Z,100813.88
2022-12-20T17:22:51.109Z,100817.53
2022-12-20T17:27:53.675Z,100810.31
2022-12-20T17:32:55.531Z,100793.00
2022-12-20T17:37:58.062Z,100784.63
2022-12-20T17:42:59.753Z,100776.22
2022-12-20T17:48:01.734Z,100767.31
2022-12-20T17:53:04.144Z,100777.38
2022-12-20T17:58:05.850Z,100786.53
2022-12-20T18:03:20.066Z,100801.56
2022-12-20T18:08:31.589Z,100803.19
2022-12-20T18:13:33.477Z,100798.13
2022-12-20T18:18:37.137Z,100792.88
2022-12-20T18:23:39.226Z,100786.13
2022-12-20T18:28:43.481Z,100779.88
2022-12-20T18:33:46.041Z,100763.31
2022-12-20T18:38:51.134Z,100767.84
2022-12-20T18:43:56.345Z,100759.03
2022-12-20T18:49:00.392Z,100743.97
2022-12-20T18:54:02.639Z,100753.22
2022-12-20T18:59:11.491Z,100751.69
2022-12-20T19:04:15.915Z,100726.00
2022-12-20T19:09:19.682Z,100722.66
2022-12-20T19:14:21.301Z,100726.75
2022-12-20T19:19:22.948Z,100697.25
2022-12-20T19:24:24.749Z,100717.16
2022-12-20T19:29:27.526Z,100719.06
2022-12-20T19:34:29.200Z,100716.31
2022-12-20T19:39:30.984Z,100714.59
2022-12-20T19:44:33.936Z,100708.13
2022-12-20T19:49:36.189Z,100700.03
2022-12-20T19:54:39.797Z,100684.31
2022-12-20T19:59:41.660Z,100681.00
2022-12-20T20:04:43.273Z,100672.72
2022-12-20T20:09:44.909Z,100674.44
2022-12-20T20:14:46.572Z,100646.44
2022-12-20T20:19:48.721Z,100655.97
2022-12-20T20:24:50.800Z,100657.88
2022-12-20T20:29:52.469Z,100664.53
2022-12-20T20:34:54.310Z,100664.16
2022-12-20T20:39:55.918Z,100658.63
2022-12-20T20:44:57.553Z,100650.47
2022-12-20T20:49:59.593Z,100636.38
2022-12-20T20:55:01.285Z,100630.75
2022-12-20T21:00:04.376Z,100633.53
2022-12-20T21:10:28.012Z,100645.13
2022-12-20T21:15:29.986Z,100649.03
2022-12-20T21:20:31.604Z,100644.47
2022-12-20T21:25:33.584Z,100642.75
2022-12-20T21:30:35.853Z,100622.56
2022-12-20T21:35:37.655Z,100601.72
2022-12-20T21:40:39.302Z,100606.97
2022-12-20T21:45:40.919Z,100616.94
2022-12-20T21:50:42.523Z,100611.72
2022-12-20T21:55:44.144Z,100598.88
2022-12-20T22:00:49.531Z,100600.19
2022-12-20T22:05:57.972Z,100589.66
2022-12-20T22:11:05.738Z,100576.81
2022-12-20T22:16:08.247Z,100583.25
2022-12-20T22:21:14.656Z,100591.16
2022-12-20T22:26:19.132Z,100587.91
2022-12-20T22:31:21.451Z,100594.59
2022-12-20T22:36:23.928Z,100574.59
2022-12-20T22:41:28.932Z,100565.78
2022-12-20T22:46:31.139Z,100567.28
2022-12-20T22:51:33.625Z,100565.94
2022-12-20T22:56:35.930Z,100535.88
2022-12-20T23:01:37.851Z,100516.09
2022-12-20T23:06:39.656Z,100516.75
2022-12-20T23:12:00.117Z,100515.22
2022-12-20T23:17:02.449Z,100526.25
2022-12-20T23:22:22.542Z,100504.09
2022-12-20T23:27:24.967Z,100477.28
2022-12-20T23:32:27.078Z,100470.22
2022-12-20T23:37:29.479Z,100466.59
2022-12-20T23:42:31.116Z,100469.16
2022-12-20T23:47:33.120Z,100466.59
2022-12-20T23:52:34.796Z,100464.91
2022-12-20T23:57:36.526Z,100461.19
